Time;durP1;ratioP1;P1;durP2;ratioP2;P2;SDS_P1;SDS_P2;PMS_P1;PMS_P2;Temp;Humidity;BMP_temperature;BMP_pressure;BME280_temperature;BME280_humidity;BME280_pressure;Samples;Min_cycle;Max_cycle;Signal;HPM_P1;HPM_P2
2023/11/17 00:02:55;;;;;;;2.92;1.17;;;18.00;55.90;;;;;;6154803;23;20261;-82
2023/11/17 00:07:57;;;;;;;2.63;1.10;;;18.00;56.00;;;;;;6156601;23;20225;-82
2023/11/17 00:10:22;;;;;;;2.80;1.30;;;18.00;56.10;;;;;;6130701;23;20151;-82
2023/11/17 00:12:48;;;;;;;3.30;1.20;;;18.00;56.20;;;;;;6131206;23;20179;-82
2023/11/17 00:15:14;;;;;;;3.38;1.38;;;18.00;56.00;;;;;;6131005;23;20547;-82
2023/11/17 00:17:40;;;;;;;4.47;1.27;;;18.00;56.10;;;;;;6130734;23;20587;-83
2023/11/17 00:20:06;;;;;;;2.58;1.23;;;18.00;56.10;;;;;;6155078;23;20200;-83
2023/11/17 00:22:32;;;;;;;2.50;1.08;;;17.90;56.10;;;;;;6154976;23;20132;-83
2023/11/17 00:24:58;;;;;;;4.82;1.25;;;17.90;56.10;;;;;;6130563;23;20186;-83
2023/11/17 00:27:24;;;;;;;2.17;1.30;;;17.90;56.20;;;;;;6156974;23;20219;-82
2023/11/17 00:29:50;;;;;;;6.03;1.30;;;18.00;56.20;;;;;;6154708;23;20147;-83
2023/11/17 00:32:16;;;;;;;2.17;1.30;;;17.90;56.10;;;;;;6154447;23;20595;-82
2023/11/17 00:34:43;;;;;;;5.35;1.13;;;17.90;56.10;;;;;;6155752;23;20132;-82
2023/11/17 00:37:10;;;;;;;3.33;1.08;;;17.90;56.20;;;;;;6155236;23;20136;-83
2023/11/17 00:39:36;;;;;;;2.45;1.60;;;17.90;56.10;;;;;;6130814;23;20200;-83
2023/11/17 00:42:02;;;;;;;2.58;1.17;;;17.90;56.10;;;;;;6155601;23;20128;-83
2023/11/17 00:44:29;;;;;;;4.85;1.30;;;17.90;56.20;;;;;;6131143;23;20151;-83
2023/11/17 00:46:56;;;;;;;4.70;1.10;;;17.90;56.20;;;;;;6130506;23;20159;-84
2023/11/17 00:49:24;;;;;;;3.53;1.00;;;17.90;56.20;;;;;;6130440;23;20143;-82
2023/11/17 00:51:51;;;;;;;0.98;0.85;;;17.90;56.20;;;;;;6131569;23;20155;-83
2023/11/17 00:54:25;;;;;;;2.67;1.25;;;17.90;56.20;;;;;;6129524;23;20151;-83
2023/11/17 00:56:54;;;;;;;2.78;0.90;;;17.90;56.90;;;;;;6131761;23;20151;-84
2023/11/17 00:59:21;;;;;;;1.35;1.10;;;17.90;56.20;;;;;;6131320;23;20131;-83
2023/11/17 01:01:47;;;;;;;2.50;1.10;;;17.90;56.20;;;;;;6130987;23;20151;-83
2023/11/17 01:04:15;;;;;;;5.07;1.10;;;17.90;56.20;;;;;;6131262;23;20162;-82
2023/11/17 01:06:41;;;;;;;3.28;1.10;;;17.90;56.30;;;;;;6154466;23;20686;-84
2023/11/17 01:09:07;;;;;;;3.05;1.23;;;17.90;56.20;;;;;;6131026;23;20187;-83
2023/11/17 01:11:32;;;;;;;2.97;1.20;;;17.80;56.30;;;;;;6130367;23;20245;-83
2023/11/17 01:13:58;;;;;;;2.58;1.20;;;17.80;56.30;;;;;;6155485;23;20218;-83
2023/11/17 01:16:25;;;;;;;4.55;1.13;;;17.80;56.40;;;;;;6155023;23;20136;-83
2023/11/17 01:18:50;;;;;;;3.08;1.10;;;17.90;56.20;;;;;;6129092;23;20621;-83
2023/11/17 01:21:17;;;;;;;3.05;1.27;;;17.90;56.30;;;;;;6154499;23;20132;-83
2023/11/17 01:23:43;;;;;;;1.55;1.13;;;17.90;56.20;;;;;;6131093;23;20155;-83
2023/11/17 01:26:08;;;;;;;2.55;1.05;;;17.80;56.30;;;;;;6156702;23;20136;-84
2023/11/17 01:28:34;;;;;;;2.35;1.10;;;17.80;56.30;;;;;;6155282;23;20535;-83
2023/11/17 01:31:00;;;;;;;2.97;1.67;;;17.90;56.40;;;;;;6132978;23;20148;-83
2023/11/17 01:33:26;;;;;;;1.85;0.85;;;17.80;56.20;;;;;;6157197;23;20622;-83
2023/11/17 01:35:51;;;;;;;7.38;1.25;;;17.80;56.30;;;;;;6157518;23;20132;-82
2023/11/17 01:38:19;;;;;;;2.20;1.20;;;17.80;56.40;;;;;;6157312;23;20140;-83
2023/11/17 01:40:45;;;;;;;3.15;1.10;;;17.80;56.40;;;;;;6132401;23;20208;-82
2023/11/17 01:45:35;;;;;;;3.28;1.20;;;17.80;56.40;;;;;;6158501;23;20611;-82
2023/11/17 01:48:01;;;;;;;3.28;1.25;;;17.80;56.30;;;;;;6157284;23;20146;-82
2023/11/17 01:50:27;;;;;;;1.75;1.30;;;17.80;56.20;;;;;;6132150;23;20179;-83
2023/11/17 01:52:54;;;;;;;3.40;1.10;;;17.80;56.30;;;;;;6156115;23;20163;-84
2023/11/17 01:55:19;;;;;;;1.95;1.33;;;17.80;56.40;;;;;;6156501;23;20136;-82
2023/11/17 01:57:45;;;;;;;2.90;1.10;;;17.80;56.30;;;;;;6157120;23;20139;-83
2023/11/17 02:00:15;;;;;;;4.65;1.00;;;17.80;56.30;;;;;;6132346;23;20143;-82
2023/11/17 02:02:49;;;;;;;2.28;1.15;;;17.80;56.40;;;;;;6156843;23;20756;-83
2023/11/17 02:05:17;;;;;;;2.78;1.15;;;17.80;56.30;;;;;;6157756;23;20191;-83
2023/11/17 02:08:18;;;;;;;1.40;1.00;;;17.80;57.00;;;;;;6157252;23;20560;-82
2023/11/17 02:11:18;;;;;;;3.00;1.20;;;17.80;56.30;;;;;;6155831;23;20148;-83
2023/11/17 02:13:55;;;;;;;2.63;1.02;;;17.80;56.30;;;;;;6158656;23;20209;-82
2023/11/17 02:16:24;;;;;;;4.40;1.30;;;17.80;56.40;;;;;;6132204;23;20143;-83
2023/11/17 02:18:54;;;;;;;2.95;1.10;;;17.70;56.40;;;;;;6132690;23;20136;-83
2023/11/17 02:21:31;;;;;;;2.92;1.15;;;17.70;56.30;;;;;;6132931;23;20186;-82
2023/11/17 02:23:59;;;;;;;4.00;1.33;;;17.80;56.40;;;;;;6132683;23;20238;-82
2023/11/17 02:26:43;;;;;;;2.08;1.10;;;17.70;57.10;;;;;;6133490;23;20144;-82
2023/11/17 02:29:23;;;;;;;3.45;1.20;;;17.70;56.40;;;;;;6130704;23;20239;-83
2023/11/17 02:31:51;;;;;;;2.65;1.17;;;17.80;56.50;;;;;;6133224;23;20545;-82
2023/11/17 02:39:36;;;;;;;2.65;1.00;;;17.70;56.30;;;;;;6158965;23;20213;-83
2023/11/17 02:42:10;;;;;;;1.90;1.15;;;17.80;56.50;;;;;;6135073;23;20150;-82
2023/11/17 02:44:37;;;;;;;2.42;1.35;;;17.70;56.40;;;;;;6134902;23;20226;-83
2023/11/17 02:47:03;;;;;;;1.75;1.13;;;17.80;56.40;;;;;;6132948;23;20678;-82
2023/11/17 02:49:34;;;;;;;2.03;1.10;;;17.70;56.30;;;;;;6156777;23;20183;-83
2023/11/17 02:52:08;;;;;;;2.13;1.15;;;17.80;56.40;;;;;;6133797;23;20230;-83
2023/11/17 02:54:34;;;;;;;2.10;1.10;;;17.80;56.40;;;;;;6134099;23;20151;-82
2023/11/17 02:57:00;;;;;;;1.42;1.05;;;17.70;56.40;;;;;;6132491;23;20143;-82
2023/11/17 03:22:44;;;;;;;1.17;0.85;;;17.70;56.40;;;;;;6158205;23;20339;-83
2023/11/17 03:25:15;;;;;;;2.50;1.13;;;17.70;56.40;;;;;;6131450;23;20143;-83
2023/11/17 03:27:47;;;;;;;2.17;1.02;;;17.70;56.40;;;;;;6158119;23;20140;-82
2023/11/17 03:30:13;;;;;;;1.83;1.20;;;17.70;56.40;;;;;;6157076;23;20135;-82
2023/11/17 03:32:39;;;;;;;1.75;0.82;;;17.70;56.30;;;;;;6157185;23;20171;-83
2023/11/17 03:35:05;;;;;;;3.22;1.38;;;17.70;56.30;;;;;;6158500;23;20607;-82
2023/11/17 03:37:31;;;;;;;2.30;1.05;;;17.70;56.30;;;;;;6157393;23;20135;-82
2023/11/17 03:39:57;;;;;;;1.80;1.17;;;17.70;56.40;;;;;;6132058;23;20147;-83
2023/11/17 03:57:55;;;;;;;1.30;0.90;;;17.70;56.40;;;;;;6158230;23;20206;-84
2023/11/17 04:00:22;;;;;;;3.35;1.10;;;17.70;56.50;;;;;;6155379;23;20155;-84
2023/11/17 04:08:01;;;;;;;4.00;1.10;;;17.70;56.50;;;;;;6157460;23;20547;-82
2023/11/17 04:10:28;;;;;;;2.80;1.15;;;17.70;56.40;;;;;;6129572;23;20178;-83
2023/11/17 04:12:53;;;;;;;4.53;1.10;;;17.70;56.50;;;;;;6155642;23;20193;-83
2023/11/17 04:15:19;;;;;;;2.28;1.27;;;17.70;56.30;;;;;;6155845;23;20247;-83
2023/11/17 04:17:45;;;;;;;3.40;1.17;;;17.70;56.50;;;;;;6155973;23;20139;-83
2023/11/17 04:20:14;;;;;;;2.42;1.10;;;17.70;56.50;;;;;;6155552;23;20136;-83
2023/11/17 04:22:45;;;;;;;2.53;1.02;;;17.70;56.50;;;;;;6155028;23;20159;-83
2023/11/17 04:25:10;;;;;;;3.05;1.13;;;17.70;56.40;;;;;;6105882;23;20151;-83
2023/11/17 04:27:38;;;;;;;1.75;1.10;;;17.70;56.50;;;;;;6154850;23;20135;-84
2023/11/17 04:30:07;;;;;;;1.95;1.13;;;17.70;56.40;;;;;;6154829;23;20131;-83
2023/11/17 04:32:34;;;;;;;1.90;1.20;;;17.70;56.40;;;;;;6130041;23;20257;-84
2023/11/17 04:35:01;;;;;;;2.22;1.10;;;17.60;56.40;;;;;;6131743;23;20602;-83
2023/11/17 04:37:27;;;;;;;2.35;1.13;;;17.70;56.30;;;;;;6131562;23;20143;-82
2023/11/17 04:42:33;;;;;;;2.20;1.13;;;17.60;56.40;;;;;;6157532;23;20214;-84
2023/11/17 04:45:03;;;;;;;4.63;1.33;;;17.60;56.50;;;;;;6081298;23;20482;-84
2023/11/17 04:47:31;;;;;;;2.83;1.17;;;17.70;56.40;;;;;;6105925;23;20533;-84
2023/11/17 04:49:57;;;;;;;1.88;1.13;;;17.70;56.30;;;;;;6156918;23;20706;-82
2023/11/17 04:52:25;;;;;;;2.35;1.05;;;17.70;56.40;;;;;;6158566;23;20159;-82
2023/11/17 04:54:51;;;;;;;2.00;0.95;;;17.60;56.30;;;;;;6132737;23;20599;-83
2023/11/17 04:57:17;;;;;;;3.83;1.17;;;17.70;56.40;;;;;;6132936;23;20171;-81
2023/11/17 04:59:45;;;;;;;1.75;1.05;;;17.60;56.40;;;;;;6154670;23;20211;-82
2023/11/17 05:02:11;;;;;;;1.08;0.88;;;17.60;56.40;;;;;;6142859;23;20541;-81
2023/11/17 05:04:37;;;;;;;3.03;1.20;;;17.60;56.20;;;;;;6187999;23;20150;-83
2023/11/17 05:07:03;;;;;;;1.75;1.00;;;17.70;56.50;;;;;;6188954;23;20135;-84
2023/11/17 05:09:34;;;;;;;3.00;1.33;;;17.70;56.40;;;;;;6189748;23;20173;-82
2023/11/17 05:12:03;;;;;;;3.05;1.60;;;17.60;56.40;;;;;;6162258;23;20220;-82
2023/11/17 05:14:34;;;;;;;2.08;1.00;;;17.60;56.50;;;;;;6161939;23;20170;-82
2023/11/17 05:17:06;;;;;;;1.25;0.93;;;17.60;56.50;;;;;;6188395;23;20123;-82
2023/11/17 05:19:37;;;;;;;2.10;0.98;;;17.60;56.50;;;;;;6213459;23;20134;-83
2023/11/17 05:22:03;;;;;;;2.47;1.10;;;17.60;56.40;;;;;;6187417;23;20139;-83
2023/11/17 05:24:30;;;;;;;2.05;1.00;;;17.60;56.50;;;;;;6163117;23;20142;-83
2023/11/17 05:26:57;;;;;;;3.97;1.40;;;17.60;56.40;;;;;;6162268;23;20131;-83
2023/11/17 05:29:24;;;;;;;2.30;1.20;;;17.60;56.50;;;;;;6189379;23;20261;-83
2023/11/17 05:31:51;;;;;;;2.50;1.13;;;17.60;56.40;;;;;;6188718;23;20139;-83
2023/11/17 05:34:18;;;;;;;1.10;1.00;;;17.60;56.30;;;;;;6163155;23;20181;-82
2023/11/17 05:36:44;;;;;;;1.25;0.90;;;17.60;56.40;;;;;;6189238;23;20124;-83
2023/11/17 05:39:13;;;;;;;1.67;1.17;;;17.60;56.40;;;;;;6142068;23;20209;-82
2023/11/17 05:44:15;;;;;;;2.78;1.00;;;17.60;56.40;;;;;;6159195;23;20190;-82
2023/11/17 05:46:40;;;;;;;1.67;1.00;;;17.60;56.50;;;;;;6157889;23;20135;-81
2023/11/17 05:49:06;;;;;;;1.58;1.05;;;17.60;56.40;;;;;;6159399;23;20140;-81
2023/11/17 05:51:32;;;;;;;3.30;1.17;;;17.60;56.30;;;;;;6133579;23;20140;-84
2023/11/17 05:54:01;;;;;;;1.30;0.93;;;17.60;56.40;;;;;;6132495;23;20186;-83
2023/11/17 05:56:26;;;;;;;2.25;0.95;;;17.60;56.30;;;;;;6158325;23;20174;-82
2023/11/17 05:58:52;;;;;;;2.88;1.38;;;17.60;56.40;;;;;;6134631;23;20186;-83
2023/11/17 06:01:19;;;;;;;1.95;0.90;;;17.60;56.30;;;;;;6158369;23;20211;-82
2023/11/17 06:03:45;;;;;;;2.88;1.27;;;17.60;56.40;;;;;;6159327;23;20140;-82
2023/11/17 06:06:12;;;;;;;2.88;1.20;;;17.60;56.50;;;;;;6134640;23;20140;-82
2023/11/17 06:08:38;;;;;;;2.22;1.15;;;17.60;56.40;;;;;;6161391;23;20140;-82
2023/11/17 06:11:05;;;;;;;2.60;1.23;;;17.60;56.40;;;;;;6133895;23;20162;-83
2023/11/17 06:13:33;;;;;;;1.30;1.00;;;17.60;56.40;;;;;;6158736;23;20222;-82
2023/11/17 06:16:02;;;;;;;2.70;1.23;;;17.60;56.50;;;;;;6166918;23;20131;-82
2023/11/17 06:18:28;;;;;;;1.58;1.10;;;17.60;56.50;;;;;;6167504;23;20140;-82
2023/11/17 06:21:02;;;;;;;1.08;0.90;;;17.60;56.40;;;;;;6169681;23;20132;-83
2023/11/17 06:23:28;;;;;;;3.03;1.10;;;17.50;56.50;;;;;;6165700;23;20518;-82
2023/11/17 06:25:54;;;;;;;2.45;1.38;;;17.60;57.10;;;;;;6168552;23;20139;-83
2023/11/17 06:30:46;;;;;;;1.40;1.08;;;17.60;56.40;;;;;;6163982;23;20198;-82
2023/11/17 06:33:14;;;;;;;1.92;0.90;;;17.60;56.40;;;;;;6140560;23;20195;-82
2023/11/17 06:35:44;;;;;;;1.35;1.10;;;17.60;56.40;;;;;;6140559;23;20259;-82
2023/11/17 06:38:09;;;;;;;1.55;1.10;;;17.60;56.50;;;;;;6138766;23;20151;-82
2023/11/17 06:40:35;;;;;;;1.88;1.10;;;17.50;56.30;;;;;;6140321;23;20167;-82
2023/11/17 06:43:01;;;;;;;2.35;0.95;;;17.60;56.50;;;;;;6165726;23;20222;-82
2023/11/17 06:45:27;;;;;;;1.77;1.13;;;17.60;56.50;;;;;;6141726;23;20547;-82
2023/11/17 06:50:29;;;;;;;1.98;1.20;;;17.60;56.40;;;;;;6163689;23;20628;-83
2023/11/17 06:52:55;;;;;;;1.73;0.93;;;17.50;56.30;;;;;;6141772;23;20203;-82
2023/11/17 06:55:22;;;;;;;2.30;1.17;;;17.60;56.40;;;;;;6141600;23;20226;-82
2023/11/17 06:57:54;;;;;;;2.80;1.20;;;17.60;56.30;;;;;;6164951;23;20131;-82
2023/11/17 07:00:22;;;;;;;1.33;1.10;;;17.60;56.40;;;;;;6138399;23;20163;-84
2023/11/17 07:02:52;;;;;;;1.90;1.13;;;17.60;56.50;;;;;;6139588;23;20143;-82
2023/11/17 07:05:23;;;;;;;2.13;1.20;;;17.60;56.50;;;;;;6092343;23;20173;-82
2023/11/17 07:08:12;;;;;;;2.42;1.10;;;17.50;56.50;;;;;;6142539;23;20148;-82
2023/11/17 07:10:44;;;;;;;1.95;0.90;;;17.60;56.30;;;;;;6112760;23;20160;-82
2023/11/17 07:13:11;;;;;;;1.45;0.90;;;17.60;56.00;;;;;;6043246;23;20184;-82
2023/11/17 07:15:39;;;;;;;2.05;1.15;;;17.70;56.00;;;;;;6089821;23;20179;-83
2023/11/17 07:18:07;;;;;;;1.58;0.93;;;17.60;55.80;;;;;;6065562;23;20168;-83
2023/11/17 07:20:33;;;;;;;4.35;1.05;;;17.60;56.00;;;;;;6066160;23;20231;-83
2023/11/17 07:23:04;;;;;;;1.15;0.90;;;17.70;55.30;;;;;;6113041;23;20152;-82
2023/11/17 07:25:33;;;;;;;1.13;0.80;;;17.70;55.60;;;;;;6017829;23;20159;-83
2023/11/17 07:28:06;;;;;;;1.50;0.80;;;17.70;55.50;;;;;;6112888;23;20162;-83
2023/11/17 07:30:34;;;;;;;1.27;0.90;;;17.70;55.60;;;;;;6066028;23;20160;-83
2023/11/17 07:33:00;;;;;;;2.03;0.90;;;17.80;55.30;;;;;;6018474;23;20200;-84
2023/11/17 07:35:35;;;;;;;1.40;0.77;;;17.80;55.00;;;;;;6065257;23;20164;-84
2023/11/17 07:38:02;;;;;;;1.20;0.70;;;17.80;54.90;;;;;;6061996;23;20156;-83
2023/11/17 07:40:29;;;;;;;1.67;1.00;;;17.80;54.90;;;;;;6087709;23;20156;-82
2023/11/17 07:42:56;;;;;;;1.63;0.98;;;17.90;54.90;;;;;;6039628;23;20167;-82
2023/11/17 07:45:22;;;;;;;1.92;0.80;;;17.90;54.70;;;;;;6114224;23;20137;-83
2023/11/17 07:47:49;;;;;;;1.50;1.00;;;17.80;55.00;;;;;;6140467;23;20132;-82
2023/11/17 07:50:19;;;;;;;2.13;1.05;;;17.90;55.00;;;;;;6113635;23;20139;-83
2023/11/17 07:52:45;;;;;;;1.15;0.90;;;17.80;54.70;;;;;;6066936;23;20180;-83
2023/11/17 07:55:13;;;;;;;1.65;1.00;;;17.90;55.20;;;;;;6139346;23;20151;-83
2023/11/17 07:57:45;;;;;;;1.10;0.68;;;17.80;54.80;;;;;;6113402;23;20204;-83
2023/11/17 08:00:18;;;;;;;1.38;0.95;;;17.90;54.40;;;;;;6112093;23;20571;-83
2023/11/17 08:02:46;;;;;;;1.63;0.80;;;17.90;54.50;;;;;;6092394;23;20216;-83
2023/11/17 08:05:12;;;;;;;0.80;0.68;;;17.90;54.60;;;;;;6087464;23;20144;-83
2023/11/17 08:07:41;;;;;;;1.30;0.90;;;17.90;54.90;;;;;;6113979;23;20132;-83
2023/11/17 08:10:09;;;;;;;1.10;0.95;;;17.80;54.70;;;;;;6138782;23;20187;-83
2023/11/17 08:12:35;;;;;;;1.27;0.80;;;17.90;54.50;;;;;;6113010;23;20168;-83
2023/11/17 08:15:04;;;;;;;0.63;0.57;;;18.00;54.30;;;;;;6137507;23;20133;-85
2023/11/17 08:17:33;;;;;;;1.10;0.80;;;18.00;54.10;;;;;;6113603;23;20631;-82
2023/11/17 08:20:10;;;;;;;1.05;0.60;;;18.00;54.50;;;;;;6139869;23;20590;-82
2023/11/17 08:22:37;;;;;;;1.15;0.70;;;18.00;54.30;;;;;;6088646;23;20159;-83
2023/11/17 08:25:04;;;;;;;1.38;0.60;;;18.10;54.50;;;;;;6089955;23;20802;-82
2023/11/17 08:27:31;;;;;;;0.88;0.80;;;18.00;54.30;;;;;;6115354;23;20303;-84
2023/11/17 08:29:57;;;;;;;1.13;1.02;;;18.00;54.50;;;;;;6065280;23;20179;-83
2023/11/17 08:32:28;;;;;;;0.90;0.70;;;18.00;54.20;;;;;;6085263;23;20191;-83
2023/11/17 08:34:54;;;;;;;2.28;0.95;;;18.00;53.90;;;;;;6063208;23;20172;-84
2023/11/17 08:37:26;;;;;;;1.05;0.80;;;18.00;54.70;;;;;;6110671;23;20139;-82
2023/11/17 08:39:52;;;;;;;0.70;0.70;;;18.00;54.10;;;;;;6040195;23;20848;-83
2023/11/17 08:42:18;;;;;;;1.73;0.90;;;17.90;54.70;;;;;;6088153;23;20140;-83
2023/11/17 08:44:44;;;;;;;1.27;0.85;;;17.90;54.40;;;;;;6088175;23;20164;-83
2023/11/17 08:47:11;;;;;;;2.58;0.80;;;18.00;53.90;;;;;;6084659;23;20523;-83
2023/11/17 08:49:37;;;;;;;1.23;0.70;;;18.10;54.30;;;;;;6058285;23;20152;-83
2023/11/17 08:52:08;;;;;;;0.88;0.80;;;18.10;53.80;;;;;;6130762;23;20654;-82
2023/11/17 08:54:36;;;;;;;1.27;0.65;;;18.10;53.80;;;;;;6058053;23;20210;-82
2023/11/17 08:57:02;;;;;;;0.88;0.70;;;18.10;53.60;;;;;;6033422;23;20277;-82
2023/11/17 08:59:29;;;;;;;0.75;0.57;;;18.20;53.50;;;;;;6133753;23;20128;-82
2023/11/17 09:01:54;;;;;;;1.10;0.73;;;18.10;54.10;;;;;;6131198;23;20404;-82
2023/11/17 09:04:20;;;;;;;0.75;0.63;;;18.10;53.40;;;;;;6132593;23;20136;-82
2023/11/17 09:06:47;;;;;;;0.80;0.68;;;18.10;53.90;;;;;;6132305;23;20137;-82
2023/11/17 09:09:13;;;;;;;1.10;0.60;;;18.10;54.00;;;;;;6104891;23;20191;-83
2023/11/17 09:11:41;;;;;;;1.98;0.70;;;18.10;53.60;;;;;;6104742;23;20218;-83
2023/11/17 09:14:06;;;;;;;0.93;0.80;;;18.10;54.00;;;;;;6128350;23;20169;-83
2023/11/17 09:16:34;;;;;;;1.05;0.80;;;18.20;53.90;;;;;;6078580;23;20147;-84
2023/11/17 09:19:01;;;;;;;1.55;0.82;;;18.10;54.40;;;;;;6102309;23;20140;-83
2023/11/17 09:21:27;;;;;;;0.55;0.55;;;18.10;54.20;;;;;;6128053;23;20132;-83
2023/11/17 09:23:53;;;;;;;0.85;0.77;;;18.10;53.90;;;;;;6128159;23;20136;-83
2023/11/17 09:26:20;;;;;;;1.50;0.50;;;18.10;54.10;;;;;;6102424;23;20584;-83
2023/11/17 09:28:45;;;;;;;0.70;0.60;;;18.10;54.20;;;;;;6128653;23;20569;-82
2023/11/17 09:31:12;;;;;;;0.80;0.60;;;18.10;54.30;;;;;;6104871;23;20148;-83
2023/11/17 09:33:42;;;;;;;1.27;0.90;;;18.10;53.90;;;;;;6078775;23;20174;-84
2023/11/17 09:36:08;;;;;;;1.00;0.60;;;18.10;53.90;;;;;;6052672;23;20186;-83
2023/11/17 09:38:37;;;;;;;1.13;0.60;;;18.10;54.10;;;;;;6076340;23;20664;-83
2023/11/17 09:41:06;;;;;;;0.60;0.50;;;18.10;54.20;;;;;;6055200;23;20140;-83
2023/11/17 09:43:36;;;;;;;0.80;0.68;;;18.10;53.90;;;;;;6077677;23;20132;-82
2023/11/17 09:46:02;;;;;;;0.82;0.70;;;18.10;54.20;;;;;;6126681;23;20170;-82
2023/11/17 09:48:28;;;;;;;0.68;0.50;;;18.20;53.90;;;;;;6155099;23;20207;-83
2023/11/17 09:51:12;;;;;;;0.60;0.60;;;18.20;54.10;;;;;;6154566;23;20147;-82
2023/11/17 09:53:38;;;;;;;1.75;0.77;;;18.10;53.80;;;;;;6129261;23;20183;-82
2023/11/17 09:56:04;;;;;;;1.27;0.68;;;18.10;54.20;;;;;;6154186;23;20157;-82
2023/11/17 09:58:31;;;;;;;0.70;0.60;;;18.10;54.10;;;;;;6154357;23;20234;-83
2023/11/17 10:00:56;;;;;;;0.77;0.63;;;18.10;53.90;;;;;;6104568;23;20231;-83
2023/11/17 10:03:27;;;;;;;0.70;0.60;;;18.10;53.40;;;;;;6153719;23;20578;-83
2023/11/17 10:05:58;;;;;;;0.77;0.70;;;18.20;53.90;;;;;;6104715;23;20480;-83
2023/11/17 10:08:23;;;;;;;0.65;0.65;;;18.20;53.50;;;;;;6104494;23;20167;-83
2023/11/17 10:10:49;;;;;;;1.00;0.80;;;18.20;53.40;;;;;;6155674;23;20132;-83
2023/11/17 10:13:16;;;;;;;1.52;0.60;;;18.20;53.90;;;;;;6129884;23;20213;-83
2023/11/17 10:15:45;;;;;;;0.82;0.60;;;18.20;53.20;;;;;;6130751;23;20871;-82
2023/11/17 10:18:29;;;;;;;0.88;0.70;;;18.20;53.20;;;;;;6155180;23;20583;-82
2023/11/17 10:20:57;;;;;;;0.80;0.80;;;18.20;53.30;;;;;;6106410;23;20155;-82
2023/11/17 10:23:24;;;;;;;3.45;0.63;;;18.20;53.10;;;;;;6159146;23;20571;-83
2023/11/17 10:25:54;;;;;;;1.73;0.65;;;18.10;53.20;;;;;;6138409;23;20150;-82
2023/11/17 10:28:20;;;;;;;0.80;0.63;;;18.20;53.30;;;;;;6163725;23;20132;-81
2023/11/17 10:30:46;;;;;;;0.70;0.60;;;18.20;52.80;;;;;;6166543;23;20143;-81
2023/11/17 10:33:33;;;;;;;0.90;0.60;;;18.20;53.00;;;;;;6164608;23;20178;-81
2023/11/17 10:36:12;;;;;;;0.90;0.60;;;18.30;52.10;;;;;;6137002;23;20178;-81
2023/11/17 10:38:45;;;;;;;1.75;0.60;;;18.20;52.70;;;;;;6137327;23;20242;-80
2023/11/17 10:41:17;;;;;;;1.38;0.70;;;18.30;52.60;;;;;;6113331;23;20194;-81
2023/11/17 10:43:47;;;;;;;0.50;0.50;;;18.30;52.80;;;;;;6139053;23;20159;-81
2023/11/17 10:46:12;;;;;;;2.30;0.60;;;18.30;52.50;;;;;;6163789;23;20727;-81
2023/11/17 10:48:39;;;;;;;1.25;0.60;;;18.30;52.40;;;;;;6140600;23;20191;-81
2023/11/17 10:51:06;;;;;;;2.38;0.57;;;18.30;53.10;;;;;;6139676;23;20436;-80
2023/11/17 10:53:32;;;;;;;0.77;0.73;;;18.30;53.00;;;;;;6163031;23;20229;-80
2023/11/17 10:56:04;;;;;;;1.35;0.70;;;18.30;52.90;;;;;;6140372;23;20152;-81
2023/11/17 10:58:29;;;;;;;0.80;0.50;;;18.30;52.40;;;;;;6092163;23;20155;-81
2023/11/17 11:00:56;;;;;;;0.90;0.60;;;18.30;52.40;;;;;;6164300;23;20142;-82
2023/11/17 11:03:22;;;;;;;0.82;0.68;;;18.30;52.20;;;;;;6163805;23;20154;-80
2023/11/17 11:05:51;;;;;;;1.20;0.80;;;18.30;52.20;;;;;;6160948;23;20537;-80
2023/11/17 11:08:18;;;;;;;1.25;0.70;;;18.30;52.20;;;;;;6154766;23;20500;-81
2023/11/17 11:13:17;;;;;;;0.60;0.60;;;18.30;52.00;;;;;;6159124;23;20229;-83
2023/11/17 11:15:47;;;;;;;1.88;0.75;;;18.20;52.60;;;;;;6166486;23;20468;-84
2023/11/17 11:18:15;;;;;;;1.30;0.60;;;18.20;51.60;;;;;;6144362;23;20147;-82
2023/11/17 11:20:43;;;;;;;1.10;0.80;;;18.30;52.00;;;;;;6144246;23;20150;-83
2023/11/17 11:23:10;;;;;;;1.40;0.80;;;18.30;51.80;;;;;;6145058;23;20151;-85
2023/11/17 11:25:39;;;;;;;1.35;0.60;;;18.30;51.70;;;;;;6144744;23;20147;-83
2023/11/17 11:28:07;;;;;;;0.60;0.60;;;18.20;52.80;;;;;;6144644;23;20484;-83
2023/11/17 11:30:33;;;;;;;1.08;0.65;;;18.20;52.70;;;;;;6143411;23;20143;-83
2023/11/17 11:33:01;;;;;;;1.08;0.60;;;18.20;53.40;;;;;;6163966;23;20178;-83
2023/11/17 11:35:27;;;;;;;2.13;0.88;;;18.10;54.10;;;;;;6141771;23;20198;-83
2023/11/17 11:37:53;;;;;;;0.60;0.60;;;18.20;53.50;;;;;;6149016;23;20144;-82
2023/11/17 11:40:22;;;;;;;1.50;0.80;;;18.10;53.50;;;;;;6150301;23;20243;-83
2023/11/17 11:42:50;;;;;;;0.63;0.50;;;18.10;53.50;;;;;;6174241;23;20140;-83
2023/11/17 11:45:17;;;;;;;1.55;0.63;;;18.10;54.20;;;;;;6177898;23;20214;-83
2023/11/17 11:47:49;;;;;;;2.25;0.95;;;18.10;53.60;;;;;;6149069;23;21086;-83
2023/11/17 11:50:20;;;;;;;2.85;0.57;;;18.10;53.70;;;;;;6150369;23;20139;-84
2023/11/17 11:53:05;;;;;;;1.38;0.80;;;18.10;54.10;;;;;;6172635;23;20193;-83
2023/11/17 11:55:34;;;;;;;3.80;0.90;;;18.10;53.90;;;;;;6150499;23;20146;-83
2023/11/17 11:58:00;;;;;;;2.83;1.00;;;18.10;53.90;;;;;;6174589;23;20139;-84
2023/11/17 12:00:26;;;;;;;3.95;0.88;;;18.10;53.40;;;;;;6149233;23;20147;-83
2023/11/17 12:02:59;;;;;;;3.40;1.10;;;18.20;53.00;;;;;;6176569;23;20428;-84
2023/11/17 12:05:34;;;;;;;4.13;0.85;;;18.20;53.00;;;;;;6151765;23;20128;-83
2023/11/17 12:08:03;;;;;;;7.10;1.30;;;18.30;53.40;;;;;;6149032;23;20142;-83
2023/11/17 12:10:44;;;;;;;3.00;1.00;;;18.30;53.20;;;;;;6169464;23;20139;-83
2023/11/17 12:13:34;;;;;;;3.72;0.70;;;18.30;53.40;;;;;;6171824;23;20198;-84
2023/11/17 12:16:02;;;;;;;7.90;0.82;;;18.30;53.50;;;;;;6149209;23;20155;-84
2023/11/17 12:18:32;;;;;;;2.60;0.65;;;18.20;53.50;;;;;;6148006;23;20220;-84
2023/11/17 12:21:16;;;;;;;2.70;0.70;;;18.30;53.70;;;;;;6151971;23;20147;-84
2023/11/17 12:23:57;;;;;;;3.30;0.80;;;18.30;53.30;;;;;;6174680;23;20139;-85
2023/11/17 12:26:26;;;;;;;1.88;0.75;;;18.30;52.70;;;;;;6059078;23;20220;-84
2023/11/17 12:28:54;;;;;;;5.93;0.80;;;18.30;52.80;;;;;;6058633;23;20157;-84
2023/11/17 12:31:21;;;;;;;4.70;0.90;;;18.30;52.90;;;;;;6029399;23;20184;-84
2023/11/17 12:33:51;;;;;;;5.63;0.95;;;18.30;53.20;;;;;;6028511;23;20260;-84
2023/11/17 12:36:21;;;;;;;5.00;0.77;;;18.30;52.80;;;;;;6029207;23;20168;-84
2023/11/17 12:38:59;;;;;;;2.47;0.68;;;18.30;52.50;;;;;;6052055;23;20181;-84
2023/11/17 12:41:26;;;;;;;2.25;0.68;;;18.40;52.40;;;;;;6026294;23;20166;-83
2023/11/17 12:43:55;;;;;;;1.77;0.80;;;18.40;52.80;;;;;;6026305;23;20183;-84
2023/11/17 12:46:23;;;;;;;4.10;0.73;;;18.40;52.80;;;;;;6027431;23;20161;-83
2023/11/17 12:48:52;;;;;;;3.92;0.80;;;18.30;52.70;;;;;;6003688;23;20142;-83
2023/11/17 12:51:26;;;;;;;3.88;0.80;;;18.30;53.00;;;;;;6029191;23;20156;-83
2023/11/17 12:53:52;;;;;;;4.10;0.68;;;18.40;53.00;;;;;;6027332;23;20200;-83
2023/11/17 12:56:23;;;;;;;1.25;0.70;;;18.40;52.80;;;;;;6030998;23;20249;-83
2023/11/17 13:06:33;;;;;;;3.85;0.60;;;18.40;52.90;;;;;;6169777;23;20206;-82
2023/11/17 13:09:09;;;;;;;2.03;0.75;;;18.40;52.60;;;;;;6145231;23;20154;-83
2023/11/17 13:11:41;;;;;;;2.28;0.80;;;18.30;52.90;;;;;;6168700;23;20131;-83
2023/11/17 13:14:08;;;;;;;3.45;0.68;;;18.30;52.80;;;;;;6145522;23;20171;-83
2023/11/17 13:16:41;;;;;;;2.08;0.80;;;18.40;52.80;;;;;;6146064;23;20144;-83
2023/11/17 13:19:10;;;;;;;2.90;0.70;;;18.40;52.80;;;;;;6144968;23;20147;-82
2023/11/17 13:21:38;;;;;;;2.88;0.60;;;18.30;53.00;;;;;;6145011;23;20143;-83
2023/11/17 13:24:11;;;;;;;2.17;0.73;;;18.40;52.70;;;;;;6144173;23;20150;-83
2023/11/17 13:26:37;;;;;;;2.90;1.00;;;18.30;52.70;;;;;;6145363;23;20135;-83
2023/11/17 13:29:18;;;;;;;1.00;0.70;;;18.40;52.70;;;;;;6169277;23;20166;-84
2023/11/17 13:32:00;;;;;;;2.90;0.75;;;18.30;52.80;;;;;;6145526;23;20198;-83
2023/11/17 13:34:30;;;;;;;1.77;0.90;;;18.30;52.60;;;;;;6122364;23;20213;-82
2023/11/17 13:36:58;;;;;;;4.68;0.88;;;18.40;52.50;;;;;;6119737;23;20151;-82
2023/11/17 13:39:32;;;;;;;3.30;0.80;;;18.40;53.50;;;;;;6116835;23;20202;-83
2023/11/17 13:41:58;;;;;;;6.80;1.08;;;18.40;52.80;;;;;;6119600;23;20132;-84
2023/11/17 13:44:25;;;;;;;7.97;0.90;;;18.40;52.60;;;;;;6118683;23;20158;-83
2023/11/17 13:47:02;;;;;;;4.72;0.90;;;18.40;52.80;;;;;;6094353;23;20515;-84
2023/11/17 13:49:33;;;;;;;2.30;1.00;;;18.40;53.00;;;;;;6115928;23;20178;-83
2023/11/17 13:52:08;;;;;;;2.65;0.80;;;18.40;53.20;;;;;;6117326;23;20136;-83
2023/11/17 13:54:35;;;;;;;2.90;0.70;;;18.30;52.70;;;;;;6101907;23;20313;-84
2023/11/17 13:57:08;;;;;;;5.15;0.88;;;18.40;52.80;;;;;;6096335;23;20223;-83
2023/11/17 13:59:34;;;;;;;4.05;0.70;;;18.40;52.70;;;;;;6097240;23;20155;-83
2023/11/17 14:02:04;;;;;;;4.88;0.98;;;18.40;52.70;;;;;;6119456;23;20167;-83
2023/11/17 14:04:31;;;;;;;1.75;0.73;;;18.40;52.30;;;;;;6095347;23;20155;-84
2023/11/17 14:06:59;;;;;;;2.10;0.98;;;18.30;52.20;;;;;;6145369;23;20220;-84
2023/11/17 14:09:31;;;;;;;2.65;0.80;;;18.40;52.30;;;;;;6168861;23;20162;-83
2023/11/17 14:12:03;;;;;;;3.00;0.95;;;18.40;52.60;;;;;;6143260;23;20211;-83